createdAt,value
2022-10-13T00:00:38.313Z,7.97
2022-10-13T00:03:05.235Z,9.13
2022-10-13T00:05:32.264Z,8.13
2022-10-13T00:07:59.787Z,9.03
2022-10-13T00:10:27.006Z,8.67
2022-10-13T00:12:53.806Z,8.90
2022-10-13T00:15:20.506Z,9.03
2022-10-13T00:17:47.191Z,9.27
2022-10-13T00:20:13.918Z,8.47
2022-10-13T00:22:40.638Z,9.03
2022-10-13T00:25:07.734Z,9.90
2022-10-13T00:27:34.399Z,8.93
2022-10-13T00:30:01.164Z,9.57
2022-10-13T00:32:27.915Z,8.30
2022-10-13T00:34:54.562Z,8.03
2022-10-13T00:37:21.269Z,7.80
2022-10-13T00:39:47.974Z,7.73
2022-10-13T00:42:14.712Z,8.60
2022-10-13T00:45:21.338Z,7.20
2022-10-13T00:47:53.078Z,6.67
2022-10-13T00:50:37.538Z,6.90
2022-10-13T00:53:05.783Z,8.60
2022-10-13T00:55:35.318Z,9.33
2022-10-13T00:58:05.736Z,12.07
2022-10-13T01:00:34.205Z,13.53
2022-10-13T01:03:02.140Z,16.67
2022-10-13T01:05:29.615Z,17.03
2022-10-13T01:07:57.877Z,18.13
2022-10-13T01:10:41.683Z,19.37
2022-10-13T01:13:53.858Z,20.37
2022-10-13T01:16:26.086Z,20.90
2022-10-13T01:19:20.503Z,20.40
2022-10-13T01:22:02.250Z,19.77
2022-10-13T01:24:58.684Z,20.50
2022-10-13T01:27:58.283Z,19.90
2022-10-13T01:30:25.057Z,20.47
2022-10-13T01:33:26.611Z,20.57
2022-10-13T01:36:21.337Z,20.20
2022-10-13T01:38:53.771Z,22.23
2022-10-13T01:41:32.422Z,21.00
2022-10-13T01:44:21.139Z,18.17
2022-10-13T01:46:50.369Z,19.73
2022-10-13T01:49:20.399Z,20.17
2022-10-13T01:51:47.933Z,19.73
2022-10-13T01:54:14.770Z,19.00
2022-10-13T01:56:41.490Z,19.43
2022-10-13T01:59:12.935Z,20.37
2022-10-13T02:02:16.143Z,20.17
2022-10-13T02:05:00.766Z,19.23
2022-10-13T02:07:49.363Z,19.97
2022-10-13T02:10:50.372Z,18.70
2022-10-13T02:13:22.081Z,18.77
2022-10-13T02:15:53.085Z,19.03
2022-10-13T02:18:26.164Z,18.83
2022-10-13T02:20:53.161Z,19.40
2022-10-13T02:23:20.075Z,18.63
2022-10-13T02:25:48.515Z,18.77
2022-10-13T02:28:16.064Z,20.23
2022-10-13T02:30:43.738Z,19.33
2022-10-13T02:33:11.603Z,20.40
2022-10-13T02:35:38.408Z,21.40
2022-10-13T02:38:05.498Z,19.73
2022-10-13T02:40:32.427Z,20.13
2022-10-13T02:42:59.145Z,19.57
2022-10-13T02:45:26.095Z,19.10
2022-10-13T02:47:52.953Z,19.30
2022-10-13T02:50:19.665Z,18.70
2022-10-13T02:52:46.562Z,18.43
2022-10-13T02:55:13.405Z,16.20
2022-10-13T02:57:40.089Z,17.40
2022-10-13T03:00:07.819Z,16.10
2022-10-13T03:02:34.571Z,15.83
2022-10-13T03:05:01.272Z,16.07
2022-10-13T03:07:27.991Z,16.63
2022-10-13T03:09:54.671Z,16.10
2022-10-13T03:12:21.779Z,16.07
2022-10-13T03:14:48.607Z,16.33
2022-10-13T03:17:15.391Z,16.40
2022-10-13T03:19:42.103Z,15.13
2022-10-13T03:22:09.130Z,14.80
2022-10-13T03:24:35.840Z,15.53
2022-10-13T03:27:02.552Z,16.23
2022-10-13T03:29:29.481Z,15.30
2022-10-13T03:31:56.140Z,15.80
2022-10-13T03:34:22.832Z,15.60
2022-10-13T03:36:49.526Z,15.27
2022-10-13T03:39:16.275Z,14.70
2022-10-13T03:41:43.015Z,14.83
2022-10-13T03:44:13.203Z,15.20
2022-10-13T03:46:40.403Z,13.70
2022-10-13T03:49:07.124Z,14.10
2022-10-13T03:51:34.265Z,13.87
2022-10-13T03:54:00.951Z,14.43
2022-10-13T03:56:28.122Z,14.83
2022-10-13T03:59:00.135Z,15.30
2022-10-13T04:01:29.330Z,15.10
2022-10-13T04:03:57.254Z,15.27
2022-10-13T04:06:25.259Z,15.10
2022-10-13T04:12:49.583Z,16.53
2022-10-13T04:33:01.096Z,15.83
2022-10-13T08:00:56.193Z,11.53
2022-10-13T08:03:22.842Z,11.93
2022-10-13T08:05:49.508Z,12.10
2022-10-13T08:08:16.196Z,11.37
2022-10-13T08:10:42.897Z,11.00
2022-10-13T08:13:10.913Z,11.07
2022-10-13T08:15:44.524Z,12.27
2022-10-13T08:18:13.431Z,11.37
2022-10-13T08:20:44.909Z,12.33
2022-10-13T08:23:13.362Z,11.87
2022-10-13T08:25:44.566Z,10.87
2022-10-13T08:28:20.550Z,11.80
2022-10-13T08:30:47.878Z,11.00
2022-10-13T08:33:14.652Z,11.80
2022-10-13T08:35:42.444Z,12.80
2022-10-13T08:38:09.562Z,11.23
2022-10-13T08:40:38.513Z,11.70
2022-10-13T08:43:12.412Z,11.83
2022-10-13T08:45:41.770Z,13.00
2022-10-13T08:48:41.258Z,12.23
2022-10-13T08:51:08.357Z,12.90
2022-10-13T08:53:39.984Z,11.67
2022-10-13T08:56:08.619Z,11.20
2022-10-13T08:58:37.433Z,11.40
2022-10-13T09:01:17.855Z,10.90
2022-10-13T09:03:54.790Z,11.53
2022-10-13T09:06:28.414Z,10.90
2022-10-13T09:08:58.579Z,10.83
2022-10-13T09:11:38.242Z,10.87
2022-10-13T09:14:08.754Z,10.70
2022-10-13T09:16:43.747Z,10.60
2022-10-13T09:19:30.110Z,11.37
2022-10-13T09:22:13.121Z,10.67
2022-10-13T09:24:40.037Z,11.60
2022-10-13T09:27:17.242Z,10.23
2022-10-13T09:29:45.162Z,10.63
2022-10-13T09:32:18.035Z,12.10
2022-10-13T09:34:45.905Z,11.47
2022-10-13T09:37:24.276Z,11.27
2022-10-13T09:40:14.673Z,11.80
2022-10-13T09:42:41.470Z,10.27
2022-10-13T09:45:17.639Z,11.17
2022-10-13T09:47:54.216Z,10.33
2022-10-13T09:50:24.878Z,14.53
2022-10-13T09:52:52.084Z,10.70
2022-10-13T09:55:36.884Z,10.73
2022-10-13T09:58:14.494Z,10.83
2022-10-13T10:00:42.076Z,10.63
2022-10-13T10:03:25.986Z,9.40
2022-10-13T10:05:57.049Z,10.37
2022-10-13T10:09:04.525Z,10.43
2022-10-13T10:11:43.390Z,11.37
2022-10-13T10:14:25.399Z,10.47
2022-10-13T10:17:07.863Z,10.23
2022-10-13T10:19:49.915Z,10.30
2022-10-13T10:22:16.547Z,9.50
2022-10-13T10:24:48.357Z,9.30
2022-10-13T10:27:31.924Z,9.10
2022-10-13T10:30:29.641Z,9.50
2022-10-13T10:33:03.309Z,10.70
2022-10-13T10:35:52.003Z,10.50
2022-10-13T10:38:38.714Z,10.30
2022-10-13T10:41:20.508Z,10.93
2022-10-13T10:43:55.063Z,10.07
2022-10-13T10:46:24.173Z,10.90
2022-10-13T10:48:57.097Z,11.07
2022-10-13T10:51:29.490Z,10.23
2022-10-13T10:54:06.182Z,11.87
2022-10-13T10:56:44.570Z,10.47
2022-10-13T10:59:26.075Z,11.63
2022-10-13T11:02:07.940Z,9.23
2022-10-13T11:04:42.602Z,10.60
2022-10-13T11:07:15.107Z,9.27
2022-10-13T11:09:41.753Z,9.60
2022-10-13T11:12:20.801Z,9.20
2022-10-13T11:14:54.797Z,9.57
2022-10-13T11:17:37.876Z,10.50
2022-10-13T11:20:22.592Z,11.03
2022-10-13T11:22:58.411Z,11.30
2022-10-13T11:25:36.823Z,11.47
2022-10-13T11:28:21.794Z,9.90
2022-10-13T11:31:17.462Z,10.47
2022-10-13T11:33:45.645Z,9.17
2022-10-13T11:36:44.968Z,10.57
2022-10-13T11:39:27.773Z,11.20
2022-10-13T11:42:03.693Z,11.23
2022-10-13T11:44:42.251Z,11.53
2022-10-13T11:47:21.166Z,11.33
2022-10-13T11:50:17.298Z,11.00
2022-10-13T11:52:59.494Z,11.13
2022-10-13T11:55:38.407Z,11.47
2022-10-13T11:58:30.138Z,9.30
2022-10-13T12:01:02.162Z,9.80
2022-10-13T12:03:33.157Z,9.70
2022-10-13T12:06:04.504Z,9.40
2022-10-13T12:08:34.589Z,10.60
2022-10-13T12:11:05.714Z,10.70
2022-10-13T12:13:33.657Z,9.63
2022-10-13T12:16:08.330Z,8.80
2022-10-13T12:18:40.886Z,8.73
2022-10-13T12:21:12.354Z,9.20
2022-10-13T12:23:39.519Z,10.50
2022-10-13T12:26:06.286Z,9.00
2022-10-13T12:28:51.322Z,9.80
2022-10-13T12:31:27.113Z,9.57
2022-10-13T12:33:58.907Z,8.60
2022-10-13T12:36:34.271Z,9.37
2022-10-13T12:39:05.631Z,8.30
2022-10-13T12:41:38.463Z,8.77
2022-10-13T12:44:07.510Z,9.97
2022-10-13T12:46:41.947Z,9.88
2022-10-13T12:49:23.510Z,9.20
2022-10-13T12:52:15.647Z,8.90
2022-10-13T12:54:54.822Z,8.88
2022-10-13T12:57:38.369Z,9.00
2022-10-13T13:00:20.358Z,7.90
2022-10-13T13:02:55.922Z,8.83
2022-10-13T13:05:34.855Z,9.23
2022-10-13T13:08:02.872Z,9.57
2022-10-13T13:10:29.828Z,8.30
2022-10-13T13:13:11.991Z,7.97
2022-10-13T13:15:38.827Z,7.77
2022-10-13T13:18:31.535Z,7.88
2022-10-13T13:20:58.535Z,6.95
2022-10-13T13:23:26.670Z,8.10
2022-10-13T13:26:02.419Z,8.80
2022-10-13T13:28:31.387Z,8.70
2022-10-13T13:30:58.777Z,8.73
2022-10-13T13:33:25.931Z,8.37
2022-10-13T13:35:53.360Z,8.40
2022-10-13T13:38:20.148Z,8.23
2022-10-13T13:40:46.830Z,8.70
2022-10-13T13:43:13.482Z,7.73
2022-10-13T13:45:40.441Z,9.20
2022-10-13T13:48:08.050Z,8.43
2022-10-13T13:50:36.760Z,8.90
2022-10-13T13:53:04.316Z,8.00
2022-10-13T13:55:31.009Z,9.80
2022-10-13T13:57:58.555Z,8.53
2022-10-13T14:00:25.350Z,8.97
2022-10-13T14:02:52.075Z,9.27
2022-10-13T14:05:18.786Z,8.63
2022-10-13T14:07:45.531Z,8.80
2022-10-13T14:10:12.282Z,8.80
2022-10-13T14:12:39.084Z,7.83
2022-10-13T14:15:06.344Z,9.20
2022-10-13T14:17:33.032Z,9.87
2022-10-13T14:19:59.715Z,9.47
2022-10-13T14:22:26.908Z,8.70
2022-10-13T14:24:53.771Z,9.30
2022-10-13T14:27:20.469Z,9.17
2022-10-13T14:29:47.235Z,8.93
2022-10-13T14:32:14.025Z,10.07
2022-10-13T14:34:40.690Z,9.07
2022-10-13T14:37:07.378Z,9.13
2022-10-13T14:39:34.077Z,9.50
2022-10-13T14:42:00.912Z,8.67
2022-10-13T14:44:27.588Z,9.43
2022-10-13T14:46:54.664Z,8.70
2022-10-13T14:49:21.383Z,9.13
2022-10-13T14:51:48.074Z,9.53
2022-10-13T14:54:14.867Z,7.93
2022-10-13T14:56:41.548Z,8.57
2022-10-13T14:59:09.482Z,8.67
2022-10-13T15:01:36.467Z,8.27
2022-10-13T15:04:03.498Z,8.00
2022-10-13T15:06:30.717Z,7.97
2022-10-13T15:08:57.741Z,8.77
2022-10-13T15:11:25.152Z,8.17
2022-10-13T15:13:52.385Z,8.50
2022-10-13T15:16:30.553Z,8.40
2022-10-13T15:18:57.327Z,8.57
2022-10-13T15:21:24.696Z,8.23
2022-10-13T15:23:51.672Z,7.90
2022-10-13T15:26:20.201Z,8.70
2022-10-13T15:28:49.710Z,8.13
2022-10-13T15:31:18.343Z,7.57
2022-10-13T15:33:51.752Z,8.10
2022-10-13T15:36:19.930Z,7.10
2022-10-13T15:38:47.012Z,6.93
2022-10-13T15:41:13.843Z,7.70
2022-10-13T15:43:40.631Z,9.07
2022-10-13T15:46:10.728Z,7.73
2022-10-13T15:48:37.665Z,8.27
2022-10-13T15:51:19.552Z,8.27
2022-10-13T15:53:47.442Z,7.07
2022-10-13T15:56:14.517Z,6.70
2022-10-13T15:58:41.311Z,6.00
2022-10-13T16:01:11.316Z,5.27
2022-10-13T16:03:39.192Z,5.60
2022-10-13T16:06:08.247Z,4.93
2022-10-13T16:08:44.019Z,4.50
2022-10-13T16:11:12.556Z,5.03
2022-10-13T16:13:39.727Z,5.10
2022-10-13T16:16:06.811Z,5.77
2022-10-13T16:18:36.899Z,13.90
2022-10-13T16:21:18.798Z,30.70
2022-10-13T16:23:46.928Z,32.70
2022-10-13T16:26:14.471Z,19.37
2022-10-13T16:28:41.617Z,8.90
2022-10-13T16:31:13.746Z,6.13
2022-10-13T16:33:41.992Z,5.30
2022-10-13T16:36:11.859Z,5.17
2022-10-13T16:38:38.994Z,5.93
2022-10-13T16:41:11.899Z,7.07
2022-10-13T16:43:38.653Z,8.53
2022-10-13T16:46:08.209Z,8.10
2022-10-13T16:48:35.011Z,6.50
2022-10-13T16:51:06.414Z,5.90
2022-10-13T16:53:33.884Z,9.70
2022-10-13T16:56:00.691Z,8.07
2022-10-13T16:58:27.456Z,8.50
2022-10-13T17:01:01.395Z,9.57
2022-10-13T17:03:28.096Z,8.57
2022-10-13T17:05:55.882Z,6.67
2022-10-13T17:08:22.605Z,6.00
2022-10-13T17:10:57.344Z,7.43
2022-10-13T17:13:24.974Z,5.90
2022-10-13T17:15:53.447Z,5.87
2022-10-13T17:18:20.541Z,4.77
2022-10-13T17:20:55.328Z,4.60
2022-10-13T17:23:22.807Z,4.30
2022-10-13T17:25:50.154Z,4.50
2022-10-13T17:28:17.745Z,5.23
2022-10-13T17:30:45.218Z,4.60
2022-10-13T17:33:15.284Z,4.67
2022-10-13T17:35:41.991Z,4.73
2022-10-13T17:38:08.731Z,4.40
2022-10-13T17:40:36.483Z,5.00
2022-10-13T17:43:03.282Z,4.83
2022-10-13T17:45:30.824Z,4.80
2022-10-13T17:47:58.812Z,5.23
2022-10-13T17:50:26.330Z,4.43
2022-10-13T17:52:53.317Z,5.10
2022-10-13T17:55:20.038Z,4.87
2022-10-13T17:57:46.807Z,4.93
2022-10-13T18:00:14.157Z,4.97
2022-10-13T18:02:40.831Z,5.30
2022-10-13T18:05:07.829Z,5.20
2022-10-13T18:07:34.588Z,5.20
2022-10-13T18:10:01.289Z,5.00
2022-10-13T18:12:27.990Z,5.60
2022-10-13T18:14:54.683Z,5.27
2022-10-13T18:17:21.549Z,5.27
2022-10-13T18:19:49.366Z,5.90
2022-10-13T18:22:16.211Z,5.40
2022-10-13T18:24:43.038Z,5.10
2022-10-13T18:27:10.189Z,5.20
2022-10-13T18:29:36.879Z,4.90
2022-10-13T18:32:03.904Z,4.87
2022-10-13T18:34:30.619Z,3.80
2022-10-13T18:36:58.133Z,4.33
2022-10-13T18:39:29.108Z,4.37
2022-10-13T18:41:56.984Z,3.67
2022-10-13T18:44:25.064Z,4.30
2022-10-13T18:46:54.868Z,3.93
2022-10-13T18:49:23.847Z,3.87
2022-10-13T18:51:51.814Z,4.30
2022-10-13T18:54:18.589Z,3.97
2022-10-13T18:56:45.292Z,4.50
2022-10-13T18:59:12.307Z,4.43
2022-10-13T19:01:39.320Z,4.10
2022-10-13T19:04:06.685Z,4.43
2022-10-13T19:06:33.778Z,4.20
2022-10-13T19:09:03.599Z,3.80
2022-10-13T19:11:31.047Z,4.63
2022-10-13T19:13:58.940Z,4.20
2022-10-13T19:16:27.711Z,4.17
2022-10-13T19:18:54.891Z,4.77
2022-10-13T19:21:23.098Z,3.83
2022-10-13T19:23:50.149Z,4.03
2022-10-13T19:26:20.872Z,4.40
2022-10-13T19:28:48.116Z,4.27
2022-10-13T19:31:21.575Z,4.97
2022-10-13T19:33:50.207Z,4.20
2022-10-13T19:36:26.316Z,4.43
2022-10-13T19:38:54.011Z,5.00
2022-10-13T19:41:21.078Z,5.17
2022-10-13T19:43:48.168Z,4.97
2022-10-13T19:46:14.935Z,5.30
2022-10-13T19:48:42.179Z,5.50
2022-10-13T19:51:09.409Z,6.07
2022-10-13T19:53:37.387Z,5.47
2022-10-13T19:56:04.972Z,5.87
2022-10-13T19:58:31.923Z,5.60
2022-10-13T20:01:08.439Z,5.23
2022-10-13T20:03:35.449Z,5.87
2022-10-13T20:06:06.134Z,5.50
2022-10-13T20:08:33.253Z,5.57
2022-10-13T20:11:04.920Z,5.73
2022-10-13T20:13:31.602Z,6.30
2022-10-13T20:15:58.278Z,5.70
2022-10-13T20:18:25.003Z,6.17
2022-10-13T20:20:51.720Z,5.90
2022-10-13T20:23:18.415Z,5.60
2022-10-13T20:25:45.274Z,5.53
2022-10-13T20:28:12.038Z,5.93
2022-10-13T20:30:39.970Z,5.60
2022-10-13T20:33:06.776Z,5.00
2022-10-13T20:35:33.513Z,5.03
2022-10-13T20:38:00.187Z,5.10
2022-10-13T20:40:26.936Z,5.10
2022-10-13T20:42:53.750Z,4.77
2022-10-13T20:45:21.101Z,5.43
2022-10-13T20:47:48.783Z,5.53
2022-10-13T20:50:15.688Z,5.13
2022-10-13T20:52:42.554Z,5.30
2022-10-13T20:55:10.020Z,5.30
2022-10-13T20:57:36.901Z,4.93
2022-10-13T21:00:05.679Z,4.97
2022-10-13T21:02:32.572Z,4.40
2022-10-13T21:04:59.248Z,5.10
2022-10-13T21:07:28.326Z,4.77
2022-10-13T21:09:55.186Z,5.20
2022-10-13T21:15:38.077Z,6.30
2022-10-13T21:18:05.583Z,5.70
2022-10-13T21:20:33.693Z,5.10
2022-10-13T21:23:01.143Z,4.43
2022-10-13T21:25:28.435Z,4.50
2022-10-13T21:27:56.470Z,4.13
2022-10-13T21:30:23.545Z,4.97
2022-10-13T21:32:50.604Z,3.63
2022-10-13T21:35:17.468Z,4.70
2022-10-13T21:37:44.327Z,4.40
2022-10-13T21:40:11.582Z,4.47
2022-10-13T21:42:38.505Z,4.80
2022-10-13T21:45:05.845Z,3.90
2022-10-13T21:48:06.095Z,4.27
2022-10-13T21:50:32.816Z,4.17
2022-10-13T22:04:14.880Z,3.87
